sensor_id;sensor_type;location;lat;lon;timestamp;pressure;altitude;pressure_sealevel;temperature;humidity
63351;BME280;64988;51.058;17.040;2023-01-26T00:03:31;100884.38;;;3.42;79.85
63351;BME280;64988;51.058;17.040;2023-01-26T00:09:00;100879.09;;;3.41;79.92
63351;BME280;64988;51.058;17.040;2023-01-26T00:14:28;100880.38;;;3.31;79.89
63351;BME280;64988;51.058;17.040;2023-01-26T00:20:16;100877.72;;;3.31;79.83
63351;BME280;64988;51.058;17.040;2023-01-26T00:25:43;100870.63;;;3.30;80.48
63351;BME280;64988;51.058;17.040;2023-01-26T00:31:20;100873.38;;;3.28;80.12
63351;BME280;64988;51.058;17.040;2023-01-26T00:36:48;100866.28;;;3.27;80.54
63351;BME280;64988;51.058;17.040;2023-01-26T00:42:15;100862.75;;;3.27;80.22
63351;BME280;64988;51.058;17.040;2023-01-26T00:47:42;100864.44;;;3.29;79.97
63351;BME280;64988;51.058;17.040;2023-01-26T00:53:11;100862.63;;;3.30;80.45
63351;BME280;64988;51.058;17.040;2023-01-26T00:58:37;100864.69;;;3.23;80.25
63351;BME280;64988;51.058;17.040;2023-01-26T01:04:07;100866.50;;;3.23;80.36
63351;BME280;64988;51.058;17.040;2023-01-26T01:09:33;100866.97;;;3.10;81.02
63351;BME280;64988;51.058;17.040;2023-01-26T01:15:01;100860.81;;;3.08;80.57
63351;BME280;64988;51.058;17.040;2023-01-26T01:20:28;100860.69;;;3.11;80.83
63351;BME280;64988;51.058;17.040;2023-01-26T01:25:57;100855.38;;;3.11;80.89
63351;BME280;64988;51.058;17.040;2023-01-26T01:31:25;100858.03;;;3.11;81.19
63351;BME280;64988;51.058;17.040;2023-01-26T01:36:56;100848.38;;;3.09;80.54
63351;BME280;64988;51.058;17.040;2023-01-26T01:42:23;100839.50;;;3.08;80.53
63351;BME280;64988;51.058;17.040;2023-01-26T01:47:59;100839.56;;;3.07;80.97
63351;BME280;64988;51.058;17.040;2023-01-26T01:53:32;100834.28;;;3.05;80.84
63351;BME280;64988;51.058;17.040;2023-01-26T01:59:03;100823.63;;;3.05;80.47
63351;BME280;64988;51.058;17.040;2023-01-26T02:04:31;100816.53;;;3.04;81.08
63351;BME280;64988;51.058;17.040;2023-01-26T02:10:02;100809.66;;;2.99;81.50
63351;BME280;64988;51.058;17.040;2023-01-26T02:15:45;100802.31;;;3.04;80.98
63351;BME280;64988;51.058;17.040;2023-01-26T02:21:16;100792.53;;;3.04;80.95
63351;BME280;64988;51.058;17.040;2023-01-26T02:26:44;100788.91;;;3.07;79.86
63351;BME280;64988;51.058;17.040;2023-01-26T02:32:12;100783.38;;;3.11;79.47
63351;BME280;64988;51.058;17.040;2023-01-26T02:37:39;100780.94;;;3.05;79.02
63351;BME280;64988;51.058;17.040;2023-01-26T02:43:07;100772.06;;;3.05;79.02
63351;BME280;64988;51.058;17.040;2023-01-26T02:48:36;100765.31;;;2.96;79.16
63351;BME280;64988;51.058;17.040;2023-01-26T02:54:22;100754.78;;;2.93;79.49
63351;BME280;64988;51.058;17.040;2023-01-26T03:00:12;100748.63;;;2.91;74.35
63351;BME280;64988;51.058;17.040;2023-01-26T03:05:40;100751.13;;;2.96;74.12
63351;BME280;64988;51.058;17.040;2023-01-26T03:11:08;100748.28;;;3.00;75.99
63351;BME280;64988;51.058;17.040;2023-01-26T03:16:36;100731.16;;;3.06;75.80
63351;BME280;64988;51.058;17.040;2023-01-26T03:22:04;100733.56;;;3.12;76.17
63351;BME280;64988;51.058;17.040;2023-01-26T03:27:50;100725.56;;;3.12;75.08
63351;BME280;64988;51.058;17.040;2023-01-26T03:33:18;100719.66;;;3.04;74.50
63351;BME280;64988;51.058;17.040;2023-01-26T03:38:47;100711.50;;;3.08;74.89
63351;BME280;64988;51.058;17.040;2023-01-26T03:44:15;100705.66;;;2.99;73.72
63351;BME280;64988;51.058;17.040;2023-01-26T03:50:01;100690.72;;;2.95;73.95
63351;BME280;64988;51.058;17.040;2023-01-26T03:55:47;100696.31;;;2.89;74.65
63351;BME280;64988;51.058;17.040;2023-01-26T04:01:39;100696.53;;;2.84;73.80
63351;BME280;64988;51.058;17.040;2023-01-26T04:07:06;100700.28;;;2.79;73.98
63351;BME280;64988;51.058;17.040;2023-01-26T04:12:52;100702.69;;;2.63;72.41
63351;BME280;64988;51.058;17.040;2023-01-26T04:18:43;100696.81;;;2.55;73.01
63351;BME280;64988;51.058;17.040;2023-01-26T04:24:30;100693.22;;;2.56;73.20
63351;BME280;64988;51.058;17.040;2023-01-26T04:29:58;100688.19;;;2.48;72.94
63351;BME280;64988;51.058;17.040;2023-01-26T04:35:26;100687.22;;;2.51;71.08
63351;BME280;64988;51.058;17.040;2023-01-26T04:40:54;100690.88;;;2.48;71.46
63351;BME280;64988;51.058;17.040;2023-01-26T04:46:22;100674.13;;;2.45;70.85
63351;BME280;64988;51.058;17.040;2023-01-26T04:51:51;100667.84;;;2.46;71.73
63351;BME280;64988;51.058;17.040;2023-01-26T04:57:19;100660.94;;;2.42;70.57
63351;BME280;64988;51.058;17.040;2023-01-26T05:02:49;100656.28;;;2.47;71.12
63351;BME280;64988;51.058;17.040;2023-01-26T05:08:17;100663.91;;;2.56;71.26
63351;BME280;64988;51.058;17.040;2023-01-26T05:13:45;100660.00;;;2.64;71.62
63351;BME280;64988;51.058;17.040;2023-01-26T05:19:22;100657.66;;;2.57;69.88
63351;BME280;64988;51.058;17.040;2023-01-26T05:25:15;100657.78;;;2.54;70.99
63351;BME280;64988;51.058;17.040;2023-01-26T05:30:52;100661.22;;;2.56;70.86
63351;BME280;64988;51.058;17.040;2023-01-26T05:36:20;100646.94;;;2.58;71.02
63351;BME280;64988;51.058;17.040;2023-01-26T05:41:47;100649.63;;;2.58;70.54
63351;BME280;64988;51.058;17.040;2023-01-26T05:47:15;100655.91;;;2.56;70.47
63351;BME280;64988;51.058;17.040;2023-01-26T05:52:45;100654.38;;;2.50;71.13
63351;BME280;64988;51.058;17.040;2023-01-26T05:58:15;100643.72;;;2.50;71.20
63351;BME280;64988;51.058;17.040;2023-01-26T06:03:43;100643.09;;;2.44;71.42
63351;BME280;64988;51.058;17.040;2023-01-26T06:09:10;100635.25;;;2.39;71.41
63351;BME280;64988;51.058;17.040;2023-01-26T06:14:57;100628.97;;;2.42;71.52
63351;BME280;64988;51.058;17.040;2023-01-26T06:20:33;100625.72;;;2.55;71.66
63351;BME280;64988;51.058;17.040;2023-01-26T06:26:03;100630.63;;;2.66;71.16
63351;BME280;64988;51.058;17.040;2023-01-26T06:31:35;100625.91;;;2.73;70.97
63351;BME280;64988;51.058;17.040;2023-01-26T06:37:04;100632.28;;;2.69;70.13
63351;BME280;64988;51.058;17.040;2023-01-26T06:42:34;100637.31;;;2.76;70.38
63351;BME280;64988;51.058;17.040;2023-01-26T06:48:01;100636.19;;;2.82;70.73
63351;BME280;64988;51.058;17.040;2023-01-26T06:53:36;100629.88;;;2.84;70.72
63351;BME280;64988;51.058;17.040;2023-01-26T06:59:37;100629.63;;;2.90;71.36
63351;BME280;64988;51.058;17.040;2023-01-26T07:05:32;100640.94;;;2.95;70.83
63351;BME280;64988;51.058;17.040;2023-01-26T07:11:00;100644.53;;;2.94;70.18
63351;BME280;64988;51.058;17.040;2023-01-26T07:16:28;100637.97;;;2.81;70.79
63351;BME280;64988;51.058;17.040;2023-01-26T07:22:00;100650.63;;;2.76;71.86
63351;BME280;64988;51.058;17.040;2023-01-26T07:27:28;100651.63;;;2.74;73.16
63351;BME280;64988;51.058;17.040;2023-01-26T07:32:58;100637.19;;;2.79;73.94
63351;BME280;64988;51.058;17.040;2023-01-26T07:38:27;100641.50;;;2.82;73.24
63351;BME280;64988;51.058;17.040;2023-01-26T07:43:59;100641.03;;;2.72;72.36
63351;BME280;64988;51.058;17.040;2023-01-26T07:49:27;100623.84;;;2.79;72.82
63351;BME280;64988;51.058;17.040;2023-01-26T07:54:54;100627.31;;;2.81;72.97
63351;BME280;64988;51.058;17.040;2023-01-26T08:00:21;100634.94;;;2.90;72.12
63351;BME280;64988;51.058;17.040;2023-01-26T08:05:47;100626.59;;;2.98;72.45
63351;BME280;64988;51.058;17.040;2023-01-26T08:11:19;100630.91;;;3.22;72.32
63351;BME280;64988;51.058;17.040;2023-01-26T08:16:49;100625.03;;;3.34;71.19
63351;BME280;64988;51.058;17.040;2023-01-26T08:22:16;100624.72;;;3.60;70.50
63351;BME280;64988;51.058;17.040;2023-01-26T08:27:44;100633.03;;;3.73;69.14
63351;BME280;64988;51.058;17.040;2023-01-26T08:33:12;100623.59;;;3.85;69.48
63351;BME280;64988;51.058;17.040;2023-01-26T08:38:40;100628.59;;;3.92;68.81
63351;BME280;64988;51.058;17.040;2023-01-26T08:44:09;100619.50;;;3.78;67.46
63351;BME280;64988;51.058;17.040;2023-01-26T08:49:37;100621.47;;;3.54;67.73
63351;BME280;64988;51.058;17.040;2023-01-26T08:55:06;100634.03;;;3.52;68.30
63351;BME280;64988;51.058;17.040;2023-01-26T09:00:34;100633.09;;;3.33;67.82
63351;BME280;64988;51.058;17.040;2023-01-26T09:06:03;100638.78;;;3.25;67.67
63351;BME280;64988;51.058;17.040;2023-01-26T09:11:31;100644.41;;;3.17;67.89
63351;BME280;64988;51.058;17.040;2023-01-26T09:17:00;100647.34;;;3.11;68.50
63351;BME280;64988;51.058;17.040;2023-01-26T09:22:27;100645.88;;;3.04;69.24
63351;BME280;64988;51.058;17.040;2023-01-26T09:27:55;100627.16;;;3.06;67.98
63351;BME280;64988;51.058;17.040;2023-01-26T09:33:23;100635.09;;;3.28;68.53
63351;BME280;64988;51.058;17.040;2023-01-26T09:38:51;100625.94;;;3.53;67.21
63351;BME280;64988;51.058;17.040;2023-01-26T09:44:25;100618.81;;;3.72;66.87
63351;BME280;64988;51.058;17.040;2023-01-26T09:49:58;100625.06;;;3.92;65.48
63351;BME280;64988;51.058;17.040;2023-01-26T09:55:27;100611.69;;;4.10;65.49
63351;BME280;64988;51.058;17.040;2023-01-26T10:00:59;100602.00;;;4.27;64.80
63351;BME280;64988;51.058;17.040;2023-01-26T10:06:29;100601.03;;;4.46;63.85
63351;BME280;64988;51.058;17.040;2023-01-26T10:12:18;100588.06;;;4.74;63.03
63351;BME280;64988;51.058;17.040;2023-01-26T10:17:48;100598.38;;;4.99;62.91
63351;BME280;64988;51.058;17.040;2023-01-26T10:23:23;100595.91;;;4.95;61.08
63351;BME280;64988;51.058;17.040;2023-01-26T10:28:52;100588.00;;;5.10;61.70
63351;BME280;64988;51.058;17.040;2023-01-26T10:34:22;100572.00;;;5.26;61.36
63351;BME280;64988;51.058;17.040;2023-01-26T10:40:01;100585.78;;;5.36;60.42
63351;BME280;64988;51.058;17.040;2023-01-26T10:45:32;100575.94;;;5.19;59.65
63351;BME280;64988;51.058;17.040;2023-01-26T10:51:15;100579.66;;;5.16;60.49
63351;BME280;64988;51.058;17.040;2023-01-26T10:56:57;100582.22;;;5.18;60.11
63351;BME280;64988;51.058;17.040;2023-01-26T11:02:30;100581.56;;;4.97;60.94
63351;BME280;64988;51.058;17.040;2023-01-26T11:07:57;100579.25;;;4.72;60.97
63351;BME280;64988;51.058;17.040;2023-01-26T11:13:26;100569.19;;;4.78;61.81
63351;BME280;64988;51.058;17.040;2023-01-26T11:19:01;100561.31;;;4.92;61.17
63351;BME280;64988;51.058;17.040;2023-01-26T11:24:36;100556.84;;;5.09;61.40
63351;BME280;64988;51.058;17.040;2023-01-26T11:58:56;100528.22;;;4.77;61.21
63351;BME280;64988;51.058;17.040;2023-01-26T12:04:24;100526.19;;;4.65;62.42
63351;BME280;64988;51.058;17.040;2023-01-26T12:09:53;100502.97;;;4.48;62.75
63351;BME280;64988;51.058;17.040;2023-01-26T12:15:36;100514.53;;;4.49;63.63
63351;BME280;64988;51.058;17.040;2023-01-26T12:21:09;100498.09;;;4.56;63.80
63351;BME280;64988;51.058;17.040;2023-01-26T12:26:41;100499.81;;;4.57;63.91
63351;BME280;64988;51.058;17.040;2023-01-26T12:32:13;100510.59;;;4.56;63.54
63351;BME280;64988;51.058;17.040;2023-01-26T12:38:03;100494.38;;;4.59;64.15
63351;BME280;64988;51.058;17.040;2023-01-26T12:43:56;100479.00;;;4.64;64.13
63351;BME280;64988;51.058;17.040;2023-01-26T12:49:42;100486.84;;;4.67;64.16
63351;BME280;64988;51.058;17.040;2023-01-26T12:55:24;100488.97;;;4.60;63.82
63351;BME280;64988;51.058;17.040;2023-01-26T13:01:04;100485.53;;;4.58;63.60
63351;BME280;64988;51.058;17.040;2023-01-26T13:06:32;100483.16;;;4.52;63.95
63351;BME280;64988;51.058;17.040;2023-01-26T13:12:00;100473.03;;;4.42;64.35
63351;BME280;64988;51.058;17.040;2023-01-26T13:22:55;100476.94;;;4.35;64.43
63351;BME280;64988;51.058;17.040;2023-01-26T13:28:26;100482.25;;;4.00;64.65
63351;BME280;64988;51.058;17.040;2023-01-26T13:33:58;100481.66;;;3.75;65.90
63351;BME280;64988;51.058;17.040;2023-01-26T13:39:48;100484.72;;;3.67;66.61
63351;BME280;64988;51.058;17.040;2023-01-26T13:51:30;100487.91;;;3.38;66.55
63351;BME280;64988;51.058;17.040;2023-01-26T13:57:02;100482.63;;;3.37;67.27
63351;BME280;64988;51.058;17.040;2023-01-26T14:02:34;100478.25;;;3.36;67.24
63351;BME280;64988;51.058;17.040;2023-01-26T14:08:01;100461.50;;;3.32;66.77
63351;BME280;64988;51.058;17.040;2023-01-26T14:13:35;100458.84;;;3.32;67.31
63351;BME280;64988;51.058;17.040;2023-01-26T14:19:14;100460.69;;;3.30;66.91
63351;BME280;64988;51.058;17.040;2023-01-26T14:24:47;100468.84;;;3.27;67.31
63351;BME280;64988;51.058;17.040;2023-01-26T14:30:29;100477.81;;;3.26;67.34
63351;BME280;64988;51.058;17.040;2023-01-26T14:36:00;100473.41;;;3.25;67.84
63351;BME280;64988;51.058;17.040;2023-01-26T14:41:30;100478.16;;;3.18;68.06
63351;BME280;64988;51.058;17.040;2023-01-26T14:47:13;100479.00;;;3.19;68.40
63351;BME280;64988;51.058;17.040;2023-01-26T14:52:43;100473.69;;;3.19;68.52
63351;BME280;64988;51.058;17.040;2023-01-26T14:58:31;100461.41;;;3.15;69.19
63351;BME280;64988;51.058;17.040;2023-01-26T15:04:11;100459.91;;;3.09;68.82
63351;BME280;64988;51.058;17.040;2023-01-26T15:09:41;100462.84;;;3.03;69.43
63351;BME280;64988;51.058;17.040;2023-01-26T15:15:27;100458.50;;;3.01;69.61
63351;BME280;64988;51.058;17.040;2023-01-26T15:21:09;100467.78;;;2.92;69.31
63351;BME280;64988;51.058;17.040;2023-01-26T15:26:38;100460.72;;;2.91;70.05
63351;BME280;64988;51.058;17.040;2023-01-26T15:32:24;100473.41;;;2.86;70.02
63351;BME280;64988;51.058;17.040;2023-01-26T15:38:19;100472.63;;;2.84;70.54
63351;BME280;64988;51.058;17.040;2023-01-26T15:43:46;100465.81;;;2.77;70.50
63351;BME280;64988;51.058;17.040;2023-01-26T15:49:13;100464.66;;;2.83;71.32
63351;BME280;64988;51.058;17.040;2023-01-26T15:54:41;100470.88;;;2.83;71.04
63351;BME280;64988;51.058;17.040;2023-01-26T16:00:12;100464.81;;;2.80;71.18
63351;BME280;64988;51.058;17.040;2023-01-26T16:05:40;100470.06;;;2.81;71.37
63351;BME280;64988;51.058;17.040;2023-01-26T16:11:10;100462.78;;;2.85;71.95
63351;BME280;64988;51.058;17.040;2023-01-26T16:16:39;100468.06;;;2.86;72.02
63351;BME280;64988;51.058;17.040;2023-01-26T16:22:11;100470.66;;;2.88;71.92
63351;BME280;64988;51.058;17.040;2023-01-26T16:27:39;100466.06;;;2.91;72.08
63351;BME280;64988;51.058;17.040;2023-01-26T16:33:11;100474.91;;;2.92;71.74
63351;BME280;64988;51.058;17.040;2023-01-26T16:38:41;100468.72;;;2.91;71.60
63351;BME280;64988;51.058;17.040;2023-01-26T16:44:13;100474.88;;;2.93;71.45
63351;BME280;64988;51.058;17.040;2023-01-26T16:49:42;100476.78;;;2.90;72.08
63351;BME280;64988;51.058;17.040;2023-01-26T16:55:11;100474.13;;;2.90;71.88
63351;BME280;64988;51.058;17.040;2023-01-26T17:00:41;100469.66;;;2.90;72.20
63351;BME280;64988;51.058;17.040;2023-01-26T17:06:08;100473.22;;;2.91;72.16
63351;BME280;64988;51.058;17.040;2023-01-26T17:11:38;100478.53;;;2.91;72.01
63351;BME280;64988;51.058;17.040;2023-01-26T17:17:06;100481.41;;;2.86;71.28
63351;BME280;64988;51.058;17.040;2023-01-26T17:22:35;100487.00;;;2.80;70.96
63351;BME280;64988;51.058;17.040;2023-01-26T17:28:02;100483.47;;;2.80;71.30
63351;BME280;64988;51.058;17.040;2023-01-26T17:33:30;100487.28;;;2.74;71.50
63351;BME280;64988;51.058;17.040;2023-01-26T17:38:57;100484.63;;;2.74;71.36
63351;BME280;64988;51.058;17.040;2023-01-26T17:44:25;100481.66;;;2.80;71.52
63351;BME280;64988;51.058;17.040;2023-01-26T17:49:53;100483.59;;;2.77;70.69
63351;BME280;64988;51.058;17.040;2023-01-26T17:55:20;100483.59;;;2.77;71.42
63351;BME280;64988;51.058;17.040;2023-01-26T18:00:47;100478.28;;;2.77;71.35
63351;BME280;64988;51.058;17.040;2023-01-26T18:06:14;100473.88;;;2.76;71.23
63351;BME280;64988;51.058;17.040;2023-01-26T18:11:42;100473.28;;;2.69;71.44
63351;BME280;64988;51.058;17.040;2023-01-26T18:17:09;100469.81;;;2.67;71.38
63351;BME280;64988;51.058;17.040;2023-01-26T18:22:36;100480.19;;;2.73;71.39
63351;BME280;64988;51.058;17.040;2023-01-26T18:28:03;100484.63;;;2.74;70.84
63351;BME280;64988;51.058;17.040;2023-01-26T18:33:34;100473.72;;;2.79;70.99
63351;BME280;64988;51.058;17.040;2023-01-26T18:39:08;100484.34;;;2.80;71.20
63351;BME280;64988;51.058;17.040;2023-01-26T18:44:37;100484.25;;;2.82;70.69
63351;BME280;64988;51.058;17.040;2023-01-26T18:50:06;100502.91;;;2.82;71.24
63351;BME280;64988;51.058;17.040;2023-01-26T18:55:33;100490.41;;;2.84;70.71
63351;BME280;64988;51.058;17.040;2023-01-26T19:01:02;100494.00;;;2.83;70.79
63351;BME280;64988;51.058;17.040;2023-01-26T19:06:32;100509.84;;;2.86;70.97
63351;BME280;64988;51.058;17.040;2023-01-26T19:12:02;100505.56;;;2.82;70.85
63351;BME280;64988;51.058;17.040;2023-01-26T19:17:30;100507.38;;;2.81;71.03
63351;BME280;64988;51.058;17.040;2023-01-26T19:22:58;100504.84;;;2.78;70.98
63351;BME280;64988;51.058;17.040;2023-01-26T19:28:27;100514.72;;;2.76;71.04
63351;BME280;64988;51.058;17.040;2023-01-26T19:34:00;100512.19;;;2.73;71.06
63351;BME280;64988;51.058;17.040;2023-01-26T19:39:28;100515.50;;;2.78;71.15
63351;BME280;64988;51.058;17.040;2023-01-26T19:44:56;100512.84;;;2.78;70.69
63351;BME280;64988;51.058;17.040;2023-01-26T19:50:24;100508.38;;;2.79;70.98
63351;BME280;64988;51.058;17.040;2023-01-26T19:55:54;100507.44;;;2.80;70.92
63351;BME280;64988;51.058;17.040;2023-01-26T20:01:27;100495.78;;;2.82;70.88
63351;BME280;64988;51.058;17.040;2023-01-26T20:06:56;100503.50;;;2.88;71.62
63351;BME280;64988;51.058;17.040;2023-01-26T20:12:24;100495.47;;;2.90;71.44
63351;BME280;64988;51.058;17.040;2023-01-26T20:17:52;100506.03;;;2.91;71.68
63351;BME280;64988;51.058;17.040;2023-01-26T20:23:21;100490.13;;;2.90;71.84
63351;BME280;64988;51.058;17.040;2023-01-26T20:28:50;100488.38;;;2.89;71.93
63351;BME280;64988;51.058;17.040;2023-01-26T20:34:17;100492.72;;;2.91;72.32
63351;BME280;64988;51.058;17.040;2023-01-26T20:39:50;100494.13;;;2.80;72.85
63351;BME280;64988;51.058;17.040;2023-01-26T20:45:18;100497.06;;;2.74;74.09
63351;BME280;64988;51.058;17.040;2023-01-26T20:50:46;100493.59;;;2.72;74.07
63351;BME280;64988;51.058;17.040;2023-01-26T20:56:13;100493.66;;;2.70;74.10
63351;BME280;64988;51.058;17.040;2023-01-26T21:01:40;100488.34;;;2.70;74.36
63351;BME280;64988;51.058;17.040;2023-01-26T21:07:08;100490.88;;;2.73;74.80
63351;BME280;64988;51.058;17.040;2023-01-26T21:12:36;100486.91;;;2.82;75.03
63351;BME280;64988;51.058;17.040;2023-01-26T21:18:03;100487.72;;;2.84;74.97
63351;BME280;64988;51.058;17.040;2023-01-26T21:23:32;100483.38;;;2.81;75.30
63351;BME280;64988;51.058;17.040;2023-01-26T21:29:01;100478.19;;;2.78;75.46
63351;BME280;64988;51.058;17.040;2023-01-26T21:34:29;100482.00;;;2.73;76.08
63351;BME280;64988;51.058;17.040;2023-01-26T21:39:56;100478.59;;;2.69;76.71
63351;BME280;64988;51.058;17.040;2023-01-26T21:45:24;100479.56;;;2.68;76.90
63351;BME280;64988;51.058;17.040;2023-01-26T21:51:09;100475.66;;;2.75;77.39
63351;BME280;64988;51.058;17.040;2023-01-26T21:56:57;100471.94;;;2.79;77.50
63351;BME280;64988;51.058;17.040;2023-01-26T22:02:25;100470.06;;;2.81;77.22
63351;BME280;64988;51.058;17.040;2023-01-26T22:07:54;100472.53;;;2.86;77.79
63351;BME280;64988;51.058;17.040;2023-01-26T22:13:24;100460.00;;;2.88;77.90
63351;BME280;64988;51.058;17.040;2023-01-26T22:18:51;100465.41;;;2.86;78.15
63351;BME280;64988;51.058;17.040;2023-01-26T22:24:19;100460.25;;;2.82;78.46
63351;BME280;64988;51.058;17.040;2023-01-26T22:29:46;100455.56;;;2.68;78.94
63351;BME280;64988;51.058;17.040;2023-01-26T22:35:14;100456.50;;;2.67;79.35
63351;BME280;64988;51.058;17.040;2023-01-26T22:40:43;100451.34;;;2.62;79.73
63351;BME280;64988;51.058;17.040;2023-01-26T22:46:11;100460.22;;;2.63;79.72
63351;BME280;64988;51.058;17.040;2023-01-26T22:51:38;100452.50;;;2.57;80.27
63351;BME280;64988;51.058;17.040;2023-01-26T22:57:06;100453.41;;;2.56;80.42
63351;BME280;64988;51.058;17.040;2023-01-26T23:02:34;100455.56;;;2.48;80.87
63351;BME280;64988;51.058;17.040;2023-01-26T23:08:01;100457.22;;;2.50;80.93
63351;BME280;64988;51.058;17.040;2023-01-26T23:13:30;100452.69;;;2.52;81.10
63351;BME280;64988;51.058;17.040;2023-01-26T23:18:57;100448.81;;;2.59;81.18
63351;BME280;64988;51.058;17.040;2023-01-26T23:24:25;100449.78;;;2.58;80.49
63351;BME280;64988;51.058;17.040;2023-01-26T23:29:52;100450.44;;;2.63;81.13
63351;BME280;64988;51.058;17.040;2023-01-26T23:35:19;100452.34;;;2.60;80.70
63351;BME280;64988;51.058;17.040;2023-01-26T23:40:48;100448.72;;;2.42;81.73
63351;BME280;64988;51.058;17.040;2023-01-26T23:46:17;100454.03;;;2.42;82.23
63351;BME280;64988;51.058;17.040;2023-01-26T23:51:45;100449.69;;;2.40;82.01
63351;BME280;64988;51.058;17.040;2023-01-26T23:57:12;100450.78;;;2.36;81.45
